Time;durP1;ratioP1;P1;durP2;ratioP2;P2;SDS_P1;SDS_P2;PMS_P1;PMS_P2;Temp;Humidity;BMP_temperature;BMP_pressure;BME280_temperature;BME280_humidity;BME280_pressure;Samples;Min_cycle;Max_cycle;Signal;HPM_P1;HPM_P2
2022/03/15 00:01:36;;;;;;;23.00;9.57;;;;;;;-4.68;88.66;96707.66;5025224;28;20073;-49
2022/03/15 00:04:05;;;;;;;24.55;10.80;;;;;;;-4.73;88.34;96704.59;5024558;28;20045;-47
2022/03/15 00:06:34;;;;;;;22.95;9.02;;;;;;;-4.75;87.59;96696.22;5023361;28;20107;-47
2022/03/15 00:09:01;;;;;;;22.60;10.18;;;;;;;-4.82;88.46;96701.66;5025346;28;20057;-50
2022/03/15 00:11:29;;;;;;;18.65;9.15;;;;;;;-4.83;89.43;96694.94;5024059;28;20037;-47
2022/03/15 00:13:57;;;;;;;18.42;8.98;;;;;;;-4.83;90.02;96694.13;5025600;28;20045;-49
2022/03/15 00:16:23;;;;;;;24.02;10.70;;;;;;;-4.83;89.92;96700.03;5024453;28;20041;-47
2022/03/15 00:18:52;;;;;;;23.42;9.77;;;;;;;-4.86;89.65;96700.22;5024359;28;20049;-50
2022/03/15 00:21:20;;;;;;;25.15;10.27;;;;;;;-4.91;89.52;96699.66;5023931;28;20071;-49
2022/03/15 00:23:46;;;;;;;22.88;9.90;;;;;;;-4.95;89.98;96695.69;5025554;28;20108;-49
2022/03/15 00:26:13;;;;;;;23.25;9.40;;;;;;;-4.93;90.39;96698.94;5025247;28;20054;-49
2022/03/15 00:28:40;;;;;;;23.90;11.27;;;;;;;-4.93;90.44;96698.94;5024516;28;22696;-46
2022/03/15 00:31:07;;;;;;;23.13;9.75;;;;;;;-4.93;90.49;96693.88;5007618;28;20053;-48
2022/03/15 00:33:34;;;;;;;21.75;10.13;;;;;;;-4.91;90.43;96686.16;5023930;28;20057;-49
2022/03/15 00:36:00;;;;;;;28.83;12.82;;;;;;;-4.95;90.40;96680.44;5026011;28;20572;-49
2022/03/15 00:38:29;;;;;;;24.15;10.95;;;;;;;-4.94;89.83;96691.41;5025260;28;20053;-48
2022/03/15 00:40:56;;;;;;;21.55;10.80;;;;;;;-4.95;90.46;96695.69;5005270;28;20079;-52
2022/03/15 00:43:23;;;;;;;21.35;9.05;;;;;;;-4.97;91.10;96697.47;5023235;28;20411;-49
2022/03/15 00:45:51;;;;;;;20.75;10.27;;;;;;;-4.96;92.06;96696.56;5024350;28;20065;-47
2022/03/15 00:48:19;;;;;;;21.23;10.15;;;;;;;-4.87;91.56;96693.50;5005271;28;20506;-48
2022/03/15 00:50:46;;;;;;;26.95;11.50;;;;;;;-4.87;91.15;96685.88;5026014;28;20107;-52
2022/03/15 00:53:13;;;;;;;27.55;12.43;;;;;;;-4.91;91.00;96686.97;5023424;28;20042;-49
2022/03/15 00:55:42;;;;;;;24.83;12.70;;;;;;;-4.92;90.89;96677.69;5005934;28;20052;-50
2022/03/15 00:58:10;;;;;;;25.10;12.23;;;;;;;-4.91;90.78;96686.97;5005379;28;20047;-49
2022/03/15 01:00:38;;;;;;;30.90;10.32;;;;;;;-5.00;89.98;96687.50;5025287;28;20387;-50
2022/03/15 01:03:06;;;;;;;25.13;11.77;;;;;;;-5.18;89.83;96669.88;5026268;28;20099;-50
2022/03/15 01:05:33;;;;;;;21.13;10.95;;;;;;;-5.20;90.36;96676.75;5022639;28;20514;-48
2022/03/15 01:08:00;;;;;;;19.98;10.73;;;;;;;-5.20;90.93;96671.69;5005662;28;20533;-49
2022/03/15 01:10:27;;;;;;;23.38;10.63;;;;;;;-5.23;91.31;96669.31;5006708;28;20064;-49
2022/03/15 01:12:54;;;;;;;25.40;10.43;;;;;;;-5.22;91.46;96663.34;5005618;28;20140;-49
2022/03/15 01:15:23;;;;;;;24.67;11.80;;;;;;;-5.21;91.35;96664.94;5005675;28;20488;-51
2022/03/15 01:17:51;;;;;;;15.20;8.50;;;;;;;-5.29;91.47;96664.59;5023755;28;20092;-51
2022/03/15 01:20:18;;;;;;;19.77;10.48;;;;;;;-5.45;92.14;96646.06;5024918;28;20037;-50
2022/03/15 01:22:45;;;;;;;16.63;9.18;;;;;;;-5.32;92.22;96672.38;5006017;28;20507;-50
2022/03/15 01:25:12;;;;;;;23.83;11.88;;;;;;;-5.29;91.93;96662.06;5023967;28;20041;-48
2022/03/15 01:27:40;;;;;;;24.15;10.63;;;;;;;-5.38;92.36;96665.13;5023613;28;20469;-47
2022/03/15 01:30:08;;;;;;;15.27;8.02;;;;;;;-5.45;91.15;96671.44;5023664;28;20510;-50
2022/03/15 01:32:34;;;;;;;22.27;9.32;;;;;;;-5.61;90.85;96661.34;5021920;28;20673;-47
2022/03/15 01:35:03;;;;;;;15.95;7.63;;;;;;;-5.63;91.61;96669.03;5022445;28;20045;-48
2022/03/15 01:37:30;;;;;;;22.15;10.50;;;;;;;-5.62;91.48;96660.53;5023645;28;20049;-47
2022/03/15 01:40:02;;;;;;;21.88;11.93;;;;;;;-5.69;91.80;96666.84;5009752;28;20442;-49
2022/03/15 01:42:29;;;;;;;23.83;11.98;;;;;;;-5.68;91.85;96671.00;5026102;28;20037;-47
2022/03/15 01:44:56;;;;;;;49.50;21.75;;;;;;;-5.76;92.03;96663.81;5022783;28;20042;-48
2022/03/15 01:47:23;;;;;;;32.15;13.00;;;;;;;-5.85;93.02;96653.34;5021698;28;20053;-48
2022/03/15 01:49:49;;;;;;;38.03;15.80;;;;;;;-5.85;93.00;96661.78;5023354;28;20476;-48
2022/03/15 01:52:16;;;;;;;28.42;14.07;;;;;;;-5.82;92.61;96668.41;5025611;28;20058;-49
2022/03/15 01:54:44;;;;;;;18.08;9.40;;;;;;;-5.98;92.68;96674.38;5025344;28;20037;-47
2022/03/15 01:57:13;;;;;;;12.52;6.72;;;;;;;-6.08;92.70;96660.53;5006518;28;20053;-47
2022/03/15 01:59:41;;;;;;;17.67;9.50;;;;;;;-5.93;93.09;96685.94;5007421;28;20048;-48
2022/03/15 02:02:09;;;;;;;17.00;7.25;;;;;;;-5.93;93.49;96688.50;5007198;28;20132;-48
2022/03/15 02:04:36;;;;;;;29.70;9.98;;;;;;;-5.94;93.12;96680.06;5022719;28;20120;-47
2022/03/15 02:07:12;;;;;;;19.80;11.20;;;;;;;-6.02;93.13;96688.09;5021636;28;20053;-48
2022/03/15 02:09:40;;;;;;;18.48;8.23;;;;;;;-6.01;93.69;96684.69;5022027;28;20034;-49
2022/03/15 02:12:08;;;;;;;19.48;6.80;;;;;;;-6.08;93.37;96668.16;5027043;28;20103;-48
2022/03/15 02:14:35;;;;;;;24.00;10.85;;;;;;;-6.08;93.16;96691.00;5027461;28;20392;-51
2022/03/15 02:17:03;;;;;;;13.10;8.10;;;;;;;-6.07;93.61;96682.47;5028725;28;20550;-49
2022/03/15 02:19:30;;;;;;;18.67;10.02;;;;;;;-6.06;93.49;96689.19;5026876;28;20080;-48
2022/03/15 02:21:58;;;;;;;29.00;11.43;;;;;;;-6.12;93.60;96687.00;5027364;28;20045;-47
2022/03/15 02:24:25;;;;;;;18.00;8.57;;;;;;;-6.24;93.76;96682.56;5025001;28;20103;-50
2022/03/15 02:26:52;;;;;;;15.40;9.52;;;;;;;-6.18;94.20;96679.69;5026195;28;20049;-50
2022/03/15 02:29:20;;;;;;;17.58;9.57;;;;;;;-6.16;93.95;96680.41;5024812;28;20516;-50
2022/03/15 02:31:48;;;;;;;9.63;5.15;;;;;;;-6.28;93.68;96673.47;5027870;28;20041;-50
2022/03/15 02:34:16;;;;;;;14.93;7.15;;;;;;;-6.35;93.90;96660.31;5025879;28;20480;-52
2022/03/15 02:36:44;;;;;;;16.33;7.05;;;;;;;-6.36;94.10;96644.25;5026771;28;20158;-47
2022/03/15 02:39:11;;;;;;;16.95;7.65;;;;;;;-6.32;94.43;96654.25;5025846;28;20045;-47
2022/03/15 02:41:37;;;;;;;14.82;6.80;;;;;;;-6.37;94.88;96657.84;5028275;28;20399;-47
2022/03/15 02:44:06;;;;;;;14.15;6.70;;;;;;;-6.39;94.73;96664.72;5025660;28;20057;-49
2022/03/15 02:46:34;;;;;;;13.38;7.95;;;;;;;-6.40;94.70;96658.00;5028319;28;20045;-47
2022/03/15 02:49:02;;;;;;;11.65;6.55;;;;;;;-6.47;94.07;96651.63;5024878;28;20425;-48
2022/03/15 02:51:31;;;;;;;16.50;7.18;;;;;;;-6.39;93.50;96662.19;5030114;28;20481;-47
2022/03/15 02:54:02;;;;;;;12.55;7.40;;;;;;;-6.47;93.74;96651.63;5026951;28;20104;-46
2022/03/15 02:56:29;;;;;;;15.82;7.70;;;;;;;-6.57;94.58;96637.81;5028462;28;20045;-46
2022/03/15 02:58:56;;;;;;;18.90;9.95;;;;;;;-6.56;95.54;96658.00;5024953;28;20045;-50
2022/03/15 03:01:24;;;;;;;23.25;8.88;;;;;;;-6.55;95.68;96658.84;5027561;28;20037;-46
2022/03/15 03:03:53;;;;;;;14.68;8.85;;;;;;;-6.59;95.69;96657.34;5027008;28;20052;-46
2022/03/15 03:06:19;;;;;;;16.02;8.23;;;;;;;-6.63;95.48;96655.88;5027213;28;20054;-48
2022/03/15 03:08:47;;;;;;;17.63;9.82;;;;;;;-6.65;95.99;96657.66;5025275;28;20483;-47
2022/03/15 03:11:14;;;;;;;14.65;8.43;;;;;;;-6.59;96.22;96657.34;5026648;28;20064;-49
2022/03/15 03:13:42;;;;;;;43.88;10.32;;;;;;;-6.59;96.10;96657.34;5026260;28;20049;-47
2022/03/15 03:16:10;;;;;;;18.33;9.93;;;;;;;-6.66;96.10;96656.84;5025233;28;20053;-47
2022/03/15 03:18:37;;;;;;;22.63;9.10;;;;;;;-6.69;96.23;96651.94;5024801;28;20091;-52
2022/03/15 03:21:05;;;;;;;21.25;8.43;;;;;;;-6.71;96.81;96652.94;5024958;28;20068;-50
2022/03/15 03:23:35;;;;;;;18.02;8.70;;;;;;;-6.71;96.75;96647.88;5025840;28;20053;-50
2022/03/15 03:26:03;;;;;;;16.23;8.52;;;;;;;-6.73;96.53;96641.16;5009042;28;20119;-47
2022/03/15 03:28:39;;;;;;;11.73;7.97;;;;;;;-6.72;96.00;96641.94;5024490;28;20577;-52
2022/03/15 03:31:09;;;;;;;16.42;8.63;;;;;;;-6.73;96.17;96645.41;5024944;28;20068;-47
2022/03/15 03:33:37;;;;;;;12.90;6.82;;;;;;;-6.78;96.05;96625.34;5024429;28;20049;-48
2022/03/15 03:36:06;;;;;;;13.55;8.52;;;;;;;-6.83;97.32;96629.84;5024265;28;20439;-48
2022/03/15 03:38:33;;;;;;;21.85;6.53;;;;;;;-6.74;97.69;96624.28;5026252;28;20049;-47
2022/03/15 03:41:00;;;;;;;21.73;6.63;;;;;;;-6.75;97.56;96627.75;5024399;28;20056;-48
2022/03/15 03:43:28;;;;;;;22.15;10.13;;;;;;;-6.76;97.73;96636.22;5026315;28;20493;-51
2022/03/15 03:45:56;;;;;;;13.45;8.15;;;;;;;-6.70;98.00;96640.16;5026282;28;20134;-49
2022/03/15 03:48:26;;;;;;;17.35;8.43;;;;;;;-6.64;97.69;96628.91;5024705;28;20068;-48
2022/03/15 03:50:53;;;;;;;15.05;8.63;;;;;;;-6.71;97.01;96622.53;5023935;28;20049;-49
2022/03/15 03:53:21;;;;;;;13.00;6.97;;;;;;;-6.83;97.01;96624.78;5027141;28;20041;-47
2022/03/15 03:55:48;;;;;;;14.00;7.93;;;;;;;-6.78;97.32;96643.09;5025503;28;20041;-46
2022/03/15 03:58:15;;;;;;;16.58;6.95;;;;;;;-6.89;97.55;96630.16;5025003;28;20402;-50
2022/03/15 04:00:42;;;;;;;14.98;7.05;;;;;;;-6.89;97.73;96650.44;5025240;28;20103;-47
2022/03/15 04:03:10;;;;;;;15.40;7.18;;;;;;;-6.88;97.74;96657.13;5026990;28;20041;-47
2022/03/15 04:05:39;;;;;;;18.27;8.07;;;;;;;-6.85;98.16;96656.97;5024804;28;20063;-48
2022/03/15 04:08:07;;;;;;;15.90;6.78;;;;;;;-6.87;98.73;96663.03;5025150;28;20517;-48
2022/03/15 04:10:34;;;;;;;16.95;8.02;;;;;;;-6.89;99.17;96650.44;5025267;28;20037;-53
2022/03/15 04:13:02;;;;;;;11.07;6.97;;;;;;;-6.81;98.91;96668.59;5024789;28;20052;-49
2022/03/15 04:15:31;;;;;;;10.55;6.82;;;;;;;-6.80;99.82;96665.16;5024977;28;20396;-47
2022/03/15 04:17:59;;;;;;;18.95;8.05;;;;;;;-6.80;100.00;96675.31;5027315;28;20132;-49
2022/03/15 04:20:27;;;;;;;16.45;6.95;;;;;;;-6.75;100.00;96668.28;5025755;28;20148;-47
2022/03/15 04:22:54;;;;;;;15.57;8.35;;;;;;;-6.67;100.00;96679.75;5026362;28;20053;-48
2022/03/15 04:25:22;;;;;;;14.52;9.10;;;;;;;-6.75;100.00;96660.69;5024415;28;20043;-49
2022/03/15 04:27:49;;;;;;;21.33;11.93;;;;;;;-6.59;100.00;96687.75;5025928;28;20095;-47
2022/03/15 04:30:15;;;;;;;16.45;8.27;;;;;;;-6.55;100.00;96686.72;5024556;28;20038;-49
2022/03/15 04:32:42;;;;;;;22.38;8.90;;;;;;;-6.43;100.00;96685.25;5025526;28;20041;-48
2022/03/15 04:35:09;;;;;;;15.40;9.52;;;;;;;-6.43;100.00;96686.06;5026890;28;20102;-48
2022/03/15 04:37:36;;;;;;;21.80;10.98;;;;;;;-6.39;100.00;96690.09;5024946;28;20049;-48
2022/03/15 04:40:03;;;;;;;40.65;15.82;;;;;;;-6.36;100.00;96689.91;5027126;28;20052;-49
2022/03/15 04:42:30;;;;;;;19.40;10.82;;;;;;;-6.37;100.00;96688.28;5024464;28;20037;-46
2022/03/15 04:44:57;;;;;;;21.67;10.98;;;;;;;-6.29;100.00;96694.66;5024166;28;20132;-50
2022/03/15 04:47:26;;;;;;;24.60;12.27;;;;;;;-6.34;100.00;96682.22;5024307;28;20038;-46
2022/03/15 04:49:52;;;;;;;26.20;10.35;;;;;;;-6.26;100.00;96699.59;5023931;28;20049;-49
2022/03/15 04:52:19;;;;;;;26.85;12.23;;;;;;;-6.23;100.00;96704.47;5026808;28;20037;-49
2022/03/15 04:54:46;;;;;;;25.63;14.45;;;;;;;-6.23;100.00;96704.47;5025403;28;20081;-49
2022/03/15 04:57:13;;;;;;;34.35;16.58;;;;;;;-6.18;100.00;96705.06;5024410;28;20131;-51
2022/03/15 04:59:40;;;;;;;25.95;12.85;;;;;;;-6.18;100.00;96712.66;5026413;28;20116;-46
2022/03/15 05:02:07;;;;;;;33.35;14.70;;;;;;;-6.13;100.00;96705.63;5025961;28;20124;-48
2022/03/15 05:04:34;;;;;;;19.95;10.15;;;;;;;-6.04;100.00;96705.13;5026691;28;20045;-52
2022/03/15 05:07:01;;;;;;;17.52;11.15;;;;;;;-6.08;100.00;96683.38;5023966;28;20048;-47
2022/03/15 05:09:33;;;;;;;20.30;12.35;;;;;;;-6.03;100.00;96691.56;5024112;28;20049;-48
2022/03/15 05:11:59;;;;;;;28.05;12.35;;;;;;;-5.93;100.00;96691.03;5024171;28;20103;-47
2022/03/15 05:14:26;;;;;;;28.83;15.57;;;;;;;-5.88;100.00;96689.06;5023850;28;20116;-47
2022/03/15 05:16:53;;;;;;;22.88;14.45;;;;;;;-5.82;100.00;96693.78;5023613;28;20042;-50
2022/03/15 05:19:20;;;;;;;28.98;12.57;;;;;;;-5.85;100.00;96696.50;5023686;28;20121;-48
2022/03/15 05:21:47;;;;;;;24.13;11.93;;;;;;;-5.81;100.00;96705.59;5026120;28;20055;-47
2022/03/15 05:24:13;;;;;;;32.08;14.32;;;;;;;-5.72;100.00;96707.63;5023449;28;20052;-49
2022/03/15 05:26:41;;;;;;;44.33;18.48;;;;;;;-5.65;100.00;96708.91;5026416;28;20040;-48
2022/03/15 05:29:07;;;;;;;31.90;15.13;;;;;;;-5.50;100.00;96708.97;5024405;28;20103;-47
2022/03/15 05:31:35;;;;;;;53.78;23.45;;;;;;;-5.49;100.00;96698.75;5023455;28;20045;-48
2022/03/15 05:34:03;;;;;;;40.38;18.80;;;;;;;-5.35;100.00;96703.03;5025851;28;20109;-51
2022/03/15 05:36:29;;;;;;;36.10;17.85;;;;;;;-5.30;100.00;96706.13;5023085;28;20042;-49
2022/03/15 05:38:56;;;;;;;26.35;14.65;;;;;;;-5.23;100.00;96702.34;5023995;28;20568;-51
2022/03/15 05:41:23;;;;;;;26.60;13.25;;;;;;;-5.15;100.00;96704.44;5023940;28;20045;-48
2022/03/15 05:43:54;;;;;;;35.83;17.80;;;;;;;-5.02;100.00;96709.66;5025460;28;20140;-47
2022/03/15 05:46:22;;;;;;;33.72;15.57;;;;;;;-4.90;100.00;96714.00;5027016;28;20396;-47
2022/03/15 05:48:49;;;;;;;41.45;19.45;;;;;;;-4.82;100.00;96706.75;5028238;28;20123;-48
2022/03/15 05:51:15;;;;;;;24.55;11.45;;;;;;;-4.70;100.00;96705.22;5026619;28;20411;-47
2022/03/15 05:53:42;;;;;;;22.88;12.95;;;;;;;-4.58;100.00;96698.59;5030689;28;20517;-46
2022/03/15 05:56:09;;;;;;;36.03;12.05;;;;;;;-4.47;100.00;96715.75;5027485;28;20059;-47
2022/03/15 05:58:36;;;;;;;31.58;12.70;;;;;;;-4.35;100.00;96709.13;5027731;28;20498;-45
2022/03/15 06:01:03;;;;;;;17.63;8.88;;;;;;;-4.23;100.00;96713.47;5030485;28;20045;-47
2022/03/15 06:03:30;;;;;;;21.55;11.25;;;;;;;-4.13;100.00;96713.72;5026864;28;20069;-46
2022/03/15 06:05:57;;;;;;;20.25;10.70;;;;;;;-3.97;100.00;96718.69;5027409;28;20049;-46
2022/03/15 06:08:24;;;;;;;20.15;10.88;;;;;;;-3.84;100.00;96719.56;5028081;28;20056;-49
2022/03/15 06:10:51;;;;;;;22.02;9.73;;;;;;;-3.73;100.00;96717.16;5030954;28;20472;-47
2022/03/15 06:13:18;;;;;;;23.05;12.35;;;;;;;-3.61;100.00;96712.22;5028100;28;20049;-51
2022/03/15 06:15:44;;;;;;;29.42;14.25;;;;;;;-3.50;100.00;96717.44;5029747;28;20053;-48
2022/03/15 06:18:11;;;;;;;32.47;15.25;;;;;;;-3.41;98.58;96711.75;5026578;28;20502;-47
2022/03/15 06:20:39;;;;;;;28.48;14.13;;;;;;;-3.31;97.88;96712.81;5025954;28;20132;-51
2022/03/15 06:23:06;;;;;;;38.42;14.35;;;;;;;-3.11;96.93;96713.25;5026024;28;20107;-47
2022/03/15 06:25:35;;;;;;;32.20;15.85;;;;;;;-3.02;96.19;96709.31;5026645;28;20060;-50
2022/03/15 06:28:02;;;;;;;25.30;14.07;;;;;;;-2.84;95.65;96725.13;5025910;28;20045;-48
2022/03/15 06:30:29;;;;;;;39.95;16.55;;;;;;;-2.67;94.07;96714.59;5027486;28;20064;-51
2022/03/15 06:32:56;;;;;;;53.20;20.23;;;;;;;-2.52;92.48;96716.13;5026365;28;20429;-49
2022/03/15 06:35:23;;;;;;;45.47;18.58;;;;;;;-2.41;91.83;96712.88;5027302;28;20081;-50
2022/03/15 06:37:50;;;;;;;33.70;15.75;;;;;;;-2.32;90.53;96711.44;5028326;28;20517;-49
2022/03/15 06:40:25;;;;;;;40.90;17.35;;;;;;;-2.18;90.65;96713.84;5028681;28;20068;-48
2022/03/15 06:42:54;;;;;;;44.88;19.30;;;;;;;-1.96;89.34;96725.13;5026187;28;20037;-46
2022/03/15 06:45:21;;;;;;;21.40;10.43;;;;;;;-1.85;86.14;96729.50;5026024;28;20065;-47
2022/03/15 06:47:48;;;;;;;47.63;15.98;;;;;;;-1.67;85.79;96725.66;5025740;28;20061;-52
2022/03/15 06:50:15;;;;;;;33.97;17.30;;;;;;;-1.52;85.51;96716.06;5025378;28;20423;-52
2022/03/15 06:52:44;;;;;;;38.78;18.45;;;;;;;-1.38;84.62;96718.44;5028556;28;20049;-52
2022/03/15 06:55:13;;;;;;;32.50;17.83;;;;;;;-1.26;83.24;96726.16;5026857;28;20061;-49
2022/03/15 06:57:41;;;;;;;35.47;18.55;;;;;;;-1.22;82.45;96725.84;5024962;28;20057;-48
2022/03/15 07:00:11;;;;;;;35.10;17.05;;;;;;;-1.06;82.41;96727.25;5027531;28;20060;-52
2022/03/15 07:02:38;;;;;;;26.58;14.98;;;;;;;-1.11;81.55;96708.91;5026400;28;20042;-53
2022/03/15 07:05:06;;;;;;;12.38;8.35;;;;;;;-1.20;82.00;96735.97;5026048;28;20638;-48
2022/03/15 07:07:33;;;;;;;37.85;16.38;;;;;;;-1.24;82.36;96726.84;5024938;28;20053;-52
2022/03/15 07:10:05;;;;;;;51.38;21.20;;;;;;;-1.04;82.54;96733.91;5025267;28;20041;-47
2022/03/15 07:12:36;;;;;;;27.73;15.07;;;;;;;-0.86;81.48;96730.94;5027865;28;20045;-48
2022/03/15 07:15:05;;;;;;;40.00;17.58;;;;;;;-0.75;80.46;96735.28;5028653;28;20049;-50
2022/03/15 07:17:32;;;;;;;37.75;15.48;;;;;;;-0.64;78.68;96733.53;5026482;28;20045;-50
2022/03/15 07:19:59;;;;;;;35.40;14.55;;;;;;;-0.51;78.25;96727.50;5025009;28;20480;-50
2022/03/15 07:22:27;;;;;;;33.05;16.00;;;;;;;-0.30;77.71;96731.00;5026717;28;20061;-49
2022/03/15 07:24:53;;;;;;;31.63;14.15;;;;;;;-0.21;77.26;96735.41;5025649;28;20045;-50
2022/03/15 07:27:21;;;;;;;33.13;14.45;;;;;;;-0.05;78.18;96734.25;5026419;28;20049;-47
2022/03/15 07:29:48;;;;;;;28.45;13.70;;;;;;;0.05;78.66;96740.28;5032404;28;20660;-52
2022/03/15 07:32:15;;;;;;;30.60;15.98;;;;;;;0.22;77.98;96735.59;5029756;28;20064;-48
2022/03/15 07:34:41;;;;;;;30.20;13.32;;;;;;;0.25;78.16;96740.50;5027506;28;20155;-50
2022/03/15 07:37:08;;;;;;;38.30;15.90;;;;;;;0.32;77.62;96737.31;5031362;28;20563;-50
2022/03/15 07:39:35;;;;;;;31.35;16.20;;;;;;;0.49;77.53;96736.00;5031184;28;20473;-47
2022/03/15 07:42:02;;;;;;;37.58;17.77;;;;;;;0.70;77.36;96736.06;5027424;28;20042;-49
2022/03/15 07:44:32;;;;;;;45.92;19.52;;;;;;;0.91;77.12;96733.50;5029081;28;20037;-49
2022/03/15 07:46:59;;;;;;;33.33;17.58;;;;;;;0.92;75.08;96735.16;5027179;28;20050;-50
2022/03/15 07:49:26;;;;;;;45.97;18.52;;;;;;;1.09;74.37;96730.41;5028181;28;20038;-49
2022/03/15 07:51:54;;;;;;;32.40;15.18;;;;;;;1.20;72.17;96732.91;5026277;28;20526;-47
2022/03/15 07:54:21;;;;;;;37.03;17.08;;;;;;;1.34;72.93;96730.00;5029977;28;20033;-50
2022/03/15 07:56:50;;;;;;;40.33;18.42;;;;;;;1.39;72.63;96731.38;5029899;28;20111;-48
2022/03/15 07:59:21;;;;;;;35.58;19.35;;;;;;;1.60;72.65;96724.47;5030501;28;20045;-49
2022/03/15 08:01:48;;;;;;;39.05;19.92;;;;;;;1.74;71.61;96732.78;5031834;28;20053;-48
2022/03/15 08:04:15;;;;;;;44.90;20.20;;;;;;;1.89;70.18;96728.91;5028478;28;20049;-48
2022/03/15 08:06:42;;;;;;;46.45;23.40;;;;;;;2.18;71.03;96733.31;5026518;28;20049;-48
2022/03/15 08:09:09;;;;;;;44.55;21.15;;;;;;;2.40;69.39;96725.41;5026144;28;20053;-48
2022/03/15 08:11:35;;;;;;;45.88;21.10;;;;;;;2.40;66.95;96717.69;5025375;28;20112;-50
2022/03/15 08:14:04;;;;;;;40.75;19.90;;;;;;;2.31;66.73;96723.63;5028679;28;20050;-48
2022/03/15 08:16:30;;;;;;;45.97;21.33;;;;;;;2.24;65.93;96722.53;5029578;28;20054;-49
2022/03/15 08:18:57;;;;;;;45.88;21.42;;;;;;;2.33;66.45;96711.44;5027418;28;22058;-48
2022/03/15 08:21:26;;;;;;;50.25;21.13;;;;;;;2.51;67.41;96708.22;5027185;28;20124;-47
2022/03/15 08:23:53;;;;;;;49.00;23.70;;;;;;;2.80;65.94;96716.75;5027061;28;20044;-48
2022/03/15 08:26:20;;;;;;;46.47;20.13;;;;;;;3.03;62.55;96714.72;5026579;28;20038;-51
2022/03/15 08:28:49;;;;;;;33.55;16.77;;;;;;;3.02;61.94;96709.69;5030535;28;20095;-47
2022/03/15 08:31:16;;;;;;;43.97;20.02;;;;;;;3.22;60.72;96703.56;5025283;28;20201;-52
2022/03/15 08:33:44;;;;;;;37.45;19.58;;;;;;;3.38;60.19;96702.16;5030700;28;20546;-48
2022/03/15 08:36:15;;;;;;;37.63;17.27;;;;;;;3.49;61.00;96704.56;5028876;28;20122;-47
2022/03/15 08:38:42;;;;;;;44.78;16.92;;;;;;;3.54;59.74;96697.22;5029805;28;20045;-48
2022/03/15 08:41:09;;;;;;;42.78;19.75;;;;;;;3.87;59.10;96697.66;5028943;28;20045;-48
2022/03/15 08:43:36;;;;;;;29.95;15.75;;;;;;;3.93;57.16;96697.09;5029204;28;20051;-50
2022/03/15 08:46:03;;;;;;;30.23;15.10;;;;;;;4.01;56.98;96691.19;5028991;28;20054;-49
2022/03/15 08:48:30;;;;;;;35.08;17.25;;;;;;;4.20;56.61;96687.72;5028145;28;20514;-51
2022/03/15 08:51:00;;;;;;;38.10;17.80;;;;;;;4.06;56.55;96658.06;5024469;28;20041;-50
2022/03/15 08:53:34;;;;;;;39.28;16.75;;;;;;;4.31;55.02;96679.75;5025801;28;20048;-49
2022/03/15 08:56:02;;;;;;;35.40;16.92;;;;;;;4.52;55.80;96673.50;5024468;28;20054;-49
2022/03/15 08:58:28;;;;;;;43.13;18.30;;;;;;;4.84;55.79;96674.75;5023808;28;20045;-51
2022/03/15 09:00:56;;;;;;;34.90;16.92;;;;;;;4.96;51.80;96673.56;5023092;28;20041;-51
2022/03/15 09:03:23;;;;;;;42.70;15.75;;;;;;;5.22;51.57;96683.09;5026801;28;20050;-47
2022/03/15 09:05:51;;;;;;;31.50;16.13;;;;;;;5.26;51.93;96674.09;5024176;28;20401;-50
2022/03/15 09:08:18;;;;;;;43.08;15.93;;;;;;;5.54;52.10;96667.75;5027991;28;20052;-49
2022/03/15 09:10:47;;;;;;;31.58;15.48;;;;;;;5.82;52.62;96667.56;5023731;28;20045;-49
2022/03/15 09:13:14;;;;;;;37.30;15.95;;;;;;;6.19;51.62;96655.28;5023599;28;20052;-49
2022/03/15 09:15:41;;;;;;;34.92;16.70;;;;;;;6.53;50.81;96657.75;5026920;28;20037;-48
2022/03/15 09:18:08;;;;;;;30.27;16.65;;;;;;;6.80;48.61;96648.06;5026306;28;20049;-52
2022/03/15 09:20:35;;;;;;;27.73;13.52;;;;;;;6.90;47.14;96656.47;5022848;28;20037;-51
2022/03/15 09:23:02;;;;;;;22.13;10.95;;;;;;;6.92;43.52;96649.34;5022083;28;20053;-47
2022/03/15 09:25:32;;;;;;;23.60;9.90;;;;;;;6.95;43.00;96641.25;5024372;28;20558;-51
2022/03/15 09:27:59;;;;;;;19.27;11.07;;;;;;;6.76;42.98;96632.03;5024320;28;20038;-52
2022/03/15 09:30:30;;;;;;;26.23;9.85;;;;;;;6.96;43.96;96635.09;5023281;28;20068;-48
2022/03/15 09:32:58;;;;;;;20.75;10.05;;;;;;;7.06;43.26;96627.97;5023663;28;20168;-48
2022/03/15 09:35:25;;;;;;;19.77;9.95;;;;;;;6.93;42.97;96632.81;5022544;28;20475;-49
2022/03/15 09:37:52;;;;;;;30.05;10.63;;;;;;;7.04;42.48;96629.09;5023630;28;20593;-50
2022/03/15 09:40:25;;;;;;;22.73;11.05;;;;;;;7.18;42.50;96630.19;5022043;28;20049;-48
2022/03/15 09:43:05;;;;;;;23.33;10.88;;;;;;;7.25;44.10;96631.16;5022427;28;20107;-49
2022/03/15 09:45:34;;;;;;;25.05;12.88;;;;;;;7.57;42.92;96624.28;5022656;28;20044;-52
2022/03/15 09:48:04;;;;;;;7.10;5.10;;;;;;;7.70;40.69;96624.53;5023124;28;20120;-48
2022/03/15 09:50:31;;;;;;;21.63;10.13;;;;;;;7.41;40.69;96600.00;5023079;28;20052;-48
2022/03/15 09:52:59;;;;;;;14.93;7.93;;;;;;;7.84;38.45;96626.41;5025312;28;20041;-49
2022/03/15 09:55:26;;;;;;;16.17;7.63;;;;;;;7.92;40.06;96606.59;5026207;28;20046;-49
2022/03/15 09:57:54;;;;;;;19.77;7.50;;;;;;;8.07;38.32;96609.28;5023327;28;20095;-50
2022/03/15 10:00:24;;;;;;;12.95;7.85;;;;;;;8.13;37.93;96608.59;5005327;28;20426;-51
2022/03/15 10:02:52;;;;;;;13.27;8.05;;;;;;;8.20;37.53;96605.13;5023098;28;20072;-47
2022/03/15 10:05:19;;;;;;;12.63;6.85;;;;;;;8.26;37.25;96597.66;5023476;28;20045;-47
2022/03/15 10:07:46;;;;;;;19.45;8.48;;;;;;;8.52;38.09;96603.34;5022387;28;20046;-49
2022/03/15 10:10:15;;;;;;;15.95;7.70;;;;;;;8.64;37.29;96589.94;5027727;28;20484;-51
2022/03/15 10:12:42;;;;;;;16.73;7.85;;;;;;;8.76;38.26;96593.72;5025314;28;20075;-53
2022/03/15 10:15:21;;;;;;;11.50;5.30;;;;;;;8.66;35.47;96587.97;5025141;28;20045;-47
2022/03/15 10:17:53;;;;;;;14.82;7.10;;;;;;;8.93;37.58;96584.81;5027158;28;20069;-50
2022/03/15 10:20:28;;;;;;;20.75;10.18;;;;;;;9.13;35.52;96586.88;5022820;28;20042;-47
2022/03/15 10:22:57;;;;;;;11.43;7.00;;;;;;;9.22;33.89;96583.22;5022724;28;20138;-50
2022/03/15 10:25:31;;;;;;;11.70;5.90;;;;;;;9.31;33.50;96582.13;5022788;28;20562;-48
2022/03/15 10:28:01;;;;;;;15.10;6.53;;;;;;;9.32;31.76;96588.94;5022063;28;20522;-47
2022/03/15 10:30:30;;;;;;;20.98;8.13;;;;;;;9.35;33.17;96583.38;5025132;28;20056;-49
2022/03/15 10:32:57;;;;;;;11.93;6.47;;;;;;;9.25;32.49;96577.63;5029842;28;20053;-46
2022/03/15 10:35:35;;;;;;;9.40;5.72;;;;;;;9.40;29.31;96574.22;5030175;28;20045;-48
2022/03/15 10:38:04;;;;;;;9.60;4.30;;;;;;;9.31;28.59;96566.53;5030200;28;20045;-47
2022/03/15 10:40:57;;;;;;;9.07;4.63;;;;;;;9.73;28.60;96574.66;5026395;28;20063;-47
2022/03/15 10:43:27;;;;;;;8.43;4.68;;;;;;;9.80;30.14;96553.91;5024921;28;20128;-49
2022/03/15 10:45:57;;;;;;;12.40;7.22;;;;;;;9.69;29.11;96561.19;5026630;28;20045;-48
2022/03/15 10:48:27;;;;;;;9.55;5.60;;;;;;;9.64;30.78;96545.31;5025434;28;20460;-48
2022/03/15 10:50:55;;;;;;;7.63;4.63;;;;;;;9.74;30.25;96548.44;5025409;28;20041;-49
2022/03/15 10:53:35;;;;;;;15.48;7.88;;;;;;;9.77;31.95;96540.25;5029079;28;20053;-52
2022/03/15 10:56:28;;;;;;;12.77;6.20;;;;;;;10.00;30.85;96528.91;5026609;28;20044;-48
2022/03/15 10:59:03;;;;;;;9.85;5.53;;;;;;;10.28;29.45;96530.75;5023595;28;20119;-48
2022/03/15 11:01:38;;;;;;;10.38;6.40;;;;;;;10.59;29.92;96517.41;5026823;28;20056;-50
2022/03/15 11:04:08;;;;;;;16.83;6.75;;;;;;;10.96;30.33;96518.03;5024192;28;20041;-49
2022/03/15 11:06:37;;;;;;;19.33;7.20;;;;;;;11.14;29.37;96511.53;5025267;28;20083;-49
2022/03/15 11:09:28;;;;;;;11.50;5.95;;;;;;;11.19;27.95;96517.78;5025127;28;20406;-47
2022/03/15 11:12:01;;;;;;;;;;;;;;;11.00;26.56;96513.25;5026897;28;20124;-48
2022/03/15 11:14:42;;;;;;;6.50;3.42;;;;;;;10.86;27.71;96501.97;5025941;28;19925;-48
2022/03/15 11:17:11;;;;;;;12.18;6.03;;;;;;;11.12;26.99;96500.50;5025260;28;20621;-50
2022/03/15 11:19:43;;;;;;;14.93;6.45;;;;;;;11.33;27.10;96497.78;5029549;28;20065;-47
2022/03/15 11:22:13;;;;;;;19.73;7.68;;;;;;;11.58;26.73;96485.03;5028931;28;20048;-50
2022/03/15 11:24:43;;;;;;;11.95;6.40;;;;;;;11.81;25.82;96486.47;5027357;28;20076;-47
2022/03/15 11:27:15;;;;;;;12.75;6.65;;;;;;;12.00;25.21;96472.69;5025924;28;20038;-48